createdAt,value
2018-12-30T00:00:42.663Z,0
2018-12-30T00:01:43.381Z,0
2018-12-30T00:02:44.132Z,0
2018-12-30T00:03:44.892Z,0
2018-12-30T00:04:45.604Z,0
2018-12-30T00:05:46.712Z,0
2018-12-30T00:06:47.463Z,0
2018-12-30T00:07:48.168Z,0
2018-12-30T00:08:48.889Z,0
2018-12-30T00:09:49.637Z,0
2018-12-30T00:10:50.410Z,0
2018-12-30T00:11:51.125Z,0
2018-12-30T00:12:51.827Z,0
2018-12-30T00:13:52.559Z,0
2018-12-30T00:14:53.256Z,0
2018-12-30T00:15:55.033Z,0
2018-12-30T00:16:56.131Z,0
2018-12-30T00:17:57.103Z,0
2018-12-30T00:18:57.809Z,0
2018-12-30T00:19:58.526Z,0
2018-12-30T00:20:59.238Z,0
2018-12-30T00:21:59.952Z,0
2018-12-30T00:23:00.656Z,0
2018-12-30T00:24:01.387Z,0
2018-12-30T00:25:02.143Z,0
2018-12-30T00:26:02.848Z,0
2018-12-30T00:27:03.555Z,0
2018-12-30T00:28:04.260Z,0
2018-12-30T00:29:04.968Z,0
2018-12-30T00:30:05.691Z,0
2018-12-30T00:31:06.408Z,0
2018-12-30T00:32:07.106Z,0
2018-12-30T00:33:07.830Z,0
2018-12-30T00:34:08.534Z,0
2018-12-30T00:35:09.392Z,0
2018-12-30T00:36:10.112Z,0
2018-12-30T00:37:10.828Z,0
2018-12-30T00:38:11.543Z,0
2018-12-30T00:39:12.264Z,0
2018-12-30T00:40:13.070Z,0
2018-12-30T00:41:13.781Z,0
2018-12-30T00:42:14.499Z,0
2018-12-30T00:43:15.203Z,0
2018-12-30T00:44:16.397Z,0
2018-12-30T00:45:17.242Z,0
2018-12-30T00:46:18.105Z,0
2018-12-30T00:47:18.811Z,0
2018-12-30T00:48:19.522Z,0
2018-12-30T00:49:20.226Z,0
2018-12-30T00:50:20.946Z,0
2018-12-30T00:51:21.701Z,0
2018-12-30T00:52:22.679Z,0
2018-12-30T00:53:23.386Z,0
2018-12-30T00:54:24.097Z,0
2018-12-30T00:55:24.807Z,0
2018-12-30T00:56:25.560Z,0
2018-12-30T00:57:26.267Z,0
2018-12-30T00:58:26.981Z,0
2018-12-30T00:59:27.690Z,0
2018-12-30T01:00:28.405Z,0
2018-12-30T01:01:29.212Z,0
2018-12-30T01:02:29.926Z,0
2018-12-30T01:03:30.633Z,0
2018-12-30T01:04:31.342Z,0
2018-12-30T01:05:32.045Z,0
2018-12-30T01:06:32.756Z,0
2018-12-30T01:07:33.464Z,0
2018-12-30T01:08:34.179Z,0
2018-12-30T01:09:34.895Z,0
2018-12-30T01:10:35.596Z,0
2018-12-30T01:11:36.319Z,0
2018-12-30T01:12:37.032Z,0
2018-12-30T01:13:37.736Z,0
2018-12-30T01:14:38.494Z,0
2018-12-30T01:15:39.205Z,0
2018-12-30T01:16:39.917Z,0
2018-12-30T01:17:40.629Z,0
2018-12-30T01:18:41.335Z,0
2018-12-30T01:19:42.047Z,0
2018-12-30T01:20:42.802Z,0
2018-12-30T01:21:43.506Z,0
2018-12-30T01:22:44.216Z,0
2018-12-30T01:23:44.925Z,0
2018-12-30T01:24:45.637Z,0
2018-12-30T01:25:46.398Z,0
2018-12-30T01:26:47.107Z,0
2018-12-30T01:27:47.827Z,0
2018-12-30T01:28:48.536Z,0
2018-12-30T01:29:49.254Z,0
2018-12-30T01:30:50.066Z,0
2018-12-30T01:31:50.779Z,0
2018-12-30T01:32:51.492Z,0
2018-12-30T01:33:52.206Z,0
2018-12-30T01:34:52.912Z,0
2018-12-30T01:35:54.134Z,0
2018-12-30T01:36:54.983Z,0
2018-12-30T01:37:55.696Z,0
2018-12-30T01:38:56.404Z,0
2018-12-30T01:39:57.105Z,0
2018-12-30T01:40:57.827Z,0
2018-12-30T01:41:58.529Z,0
2018-12-30T01:42:59.340Z,0
2018-12-30T01:44:01.357Z,0
2018-12-30T01:45:02.095Z,0
2018-12-30T01:46:02.848Z,0
2018-12-30T01:47:03.593Z,0
2018-12-30T01:48:04.860Z,0
2018-12-30T01:49:05.645Z,0
2018-12-30T01:50:06.582Z,0
2018-12-30T01:51:07.303Z,0
2018-12-30T01:52:08.053Z,0
2018-12-30T01:53:08.753Z,0
2018-12-30T01:54:09.794Z,0
2018-12-30T01:55:10.504Z,0
2018-12-30T01:56:11.211Z,0
2018-12-30T01:57:11.923Z,0
2018-12-30T01:58:12.632Z,0
2018-12-30T01:59:13.397Z,0
2018-12-30T02:00:14.100Z,0
2018-12-30T02:01:14.822Z,0
2018-12-30T02:02:15.523Z,0
2018-12-30T02:03:16.237Z,0
2018-12-30T02:04:16.947Z,0
2018-12-30T02:05:17.662Z,0
2018-12-30T02:06:18.368Z,0
2018-12-30T02:07:19.088Z,0
2018-12-30T02:08:19.801Z,0
2018-12-30T02:09:20.508Z,0
2018-12-30T02:10:21.215Z,0
2018-12-30T02:11:22.029Z,0
2018-12-30T02:12:22.737Z,0
2018-12-30T02:13:23.459Z,0
2018-12-30T02:14:24.253Z,0
2018-12-30T02:15:25.178Z,0
2018-12-30T02:16:25.955Z,0
2018-12-30T02:17:26.659Z,0
2018-12-30T02:18:27.630Z,0
2018-12-30T02:19:28.334Z,0
2018-12-30T02:20:29.043Z,0
2018-12-30T02:21:29.755Z,0
2018-12-30T02:22:30.464Z,0
2018-12-30T02:23:31.174Z,0
2018-12-30T02:24:31.889Z,0
2018-12-30T02:25:32.650Z,0
2018-12-30T02:26:33.359Z,0
2018-12-30T02:27:34.131Z,0
2018-12-30T02:28:34.852Z,0
2018-12-30T02:29:35.558Z,0
2018-12-30T02:30:36.273Z,0
2018-12-30T02:31:36.980Z,0
2018-12-30T02:32:37.692Z,0
2018-12-30T02:33:38.403Z,0
2018-12-30T02:34:39.113Z,0
2018-12-30T02:35:39.844Z,0
2018-12-30T02:36:40.548Z,0
2018-12-30T02:37:41.266Z,0
2018-12-30T02:38:41.980Z,0
2018-12-30T02:39:42.689Z,0
2018-12-30T02:40:43.400Z,0
2018-12-30T02:41:44.114Z,0
2018-12-30T02:42:44.826Z,0
2018-12-30T02:43:45.632Z,0
2018-12-30T02:44:46.346Z,0
2018-12-30T02:45:47.059Z,0
2018-12-30T02:46:47.770Z,0
2018-12-30T02:47:48.490Z,0
2018-12-30T02:48:49.202Z,0
2018-12-30T02:49:49.911Z,0
2018-12-30T02:50:50.633Z,0
2018-12-30T02:51:51.341Z,0
2018-12-30T02:52:52.069Z,0
2018-12-30T02:53:52.777Z,0
2018-12-30T02:54:53.494Z,0
2018-12-30T02:55:54.201Z,0
2018-12-30T02:56:54.909Z,0
2018-12-30T02:57:55.634Z,0
2018-12-30T02:58:56.348Z,0
2018-12-30T02:59:57.057Z,0
2018-12-30T03:00:57.821Z,0
2018-12-30T03:01:58.528Z,0
2018-12-30T03:02:59.238Z,0
2018-12-30T03:03:59.952Z,0
2018-12-30T03:05:00.657Z,0
2018-12-30T03:06:01.382Z,0
2018-12-30T03:07:02.085Z,0
2018-12-30T03:08:02.807Z,0
2018-12-30T03:09:03.509Z,0
2018-12-30T03:10:04.228Z,0
2018-12-30T03:11:04.948Z,0
2018-12-30T03:12:05.652Z,0
2018-12-30T03:13:06.461Z,0
2018-12-30T03:14:07.167Z,0
2018-12-30T03:15:07.874Z,0
2018-12-30T03:16:08.587Z,0
2018-12-30T03:17:09.308Z,0
2018-12-30T03:18:10.016Z,0
2018-12-30T03:19:10.730Z,0
2018-12-30T03:20:11.450Z,0
2018-12-30T03:21:12.157Z,0
2018-12-30T03:22:12.879Z,0
2018-12-30T03:23:13.597Z,0
2018-12-30T03:24:14.566Z,0
2018-12-30T03:25:15.277Z,0
2018-12-30T03:26:15.980Z,0
2018-12-30T03:27:16.696Z,0
2018-12-30T03:28:17.561Z,0
2018-12-30T03:29:18.273Z,0
2018-12-30T03:30:18.978Z,0
2018-12-30T03:31:19.694Z,0
2018-12-30T03:32:20.419Z,0
2018-12-30T03:33:21.126Z,0
2018-12-30T03:34:21.834Z,0
2018-12-30T03:35:22.547Z,0
2018-12-30T03:36:23.259Z,0
2018-12-30T03:37:24.211Z,0
2018-12-30T03:38:24.914Z,0
2018-12-30T03:39:25.643Z,0
2018-12-30T03:40:26.367Z,0
2018-12-30T03:41:27.075Z,0
2018-12-30T03:42:27.796Z,0
2018-12-30T03:43:28.513Z,0
2018-12-30T03:44:29.212Z,0
2018-12-30T03:45:29.935Z,0
2018-12-30T03:46:30.640Z,0
2018-12-30T03:47:31.364Z,0
2018-12-30T03:48:32.076Z,0
2018-12-30T03:49:32.791Z,0
2018-12-30T03:50:33.495Z,0
2018-12-30T03:51:34.214Z,0
2018-12-30T03:52:34.937Z,0
2018-12-30T03:53:35.672Z,0
2018-12-30T03:54:36.389Z,0
2018-12-30T03:55:37.103Z,0
2018-12-30T03:56:37.814Z,0
2018-12-30T03:57:38.519Z,0
2018-12-30T03:58:39.228Z,0
2018-12-30T03:59:40.016Z,0
2018-12-30T04:00:40.709Z,0
2018-12-30T04:01:41.426Z,0
2018-12-30T04:02:42.136Z,0
2018-12-30T04:03:42.845Z,0
2018-12-30T04:04:43.558Z,0
2018-12-30T04:05:44.523Z,0
2018-12-30T04:06:45.247Z,0
2018-12-30T04:07:45.953Z,0
2018-12-30T04:08:46.677Z,0
2018-12-30T04:09:47.388Z,0
2018-12-30T04:10:48.106Z,0
2018-12-30T04:11:49.075Z,0
2018-12-30T04:12:49.845Z,0
2018-12-30T04:13:50.801Z,0
2018-12-30T04:14:51.525Z,0
2018-12-30T04:15:52.337Z,0
2018-12-30T04:16:52.959Z,0
2018-12-30T04:17:53.761Z,0
2018-12-30T04:18:54.472Z,0
2018-12-30T04:19:55.431Z,0
2018-12-30T04:20:56.150Z,0
2018-12-30T04:21:56.869Z,0
2018-12-30T04:22:57.628Z,0
2018-12-30T04:23:58.337Z,0
2018-12-30T04:24:59.050Z,0
2018-12-30T04:25:59.757Z,0
2018-12-30T04:27:00.717Z,0
2018-12-30T04:28:01.474Z,0
2018-12-30T04:29:02.180Z,0
2018-12-30T04:30:03.137Z,0
2018-12-30T04:31:03.851Z,0
2018-12-30T04:32:04.558Z,0
2018-12-30T04:33:05.334Z,0
2018-12-30T04:34:06.043Z,0
2018-12-30T04:35:06.759Z,0
2018-12-30T04:36:07.481Z,0
2018-12-30T04:37:08.186Z,0
2018-12-30T04:38:08.908Z,0
2018-12-30T04:39:09.615Z,0
2018-12-30T04:40:10.328Z,0
2018-12-30T04:41:11.047Z,0
2018-12-30T04:42:11.748Z,0
2018-12-30T04:43:12.453Z,0
2018-12-30T04:44:13.164Z,0
2018-12-30T04:45:13.875Z,0
2018-12-30T04:46:14.588Z,0
2018-12-30T04:47:15.554Z,0
2018-12-30T04:48:16.275Z,0
2018-12-30T04:49:16.991Z,0
2018-12-30T04:50:17.706Z,0
2018-12-30T04:51:18.671Z,0
2018-12-30T04:52:25.554Z,0
2018-12-30T04:53:20.087Z,0
2018-12-30T04:54:20.807Z,0
2018-12-30T04:55:21.524Z,0
2018-12-30T04:56:22.233Z,0
2018-12-30T04:57:22.951Z,0
2018-12-30T04:58:23.911Z,0
2018-12-30T04:59:24.618Z,0
2018-12-30T05:00:25.581Z,0
2018-12-30T05:01:26.302Z,0
2018-12-30T05:02:27.066Z,0
2018-12-30T05:03:27.777Z,0
2018-12-30T05:04:28.489Z,0
2018-12-30T05:05:29.202Z,0
2018-12-30T05:06:30.157Z,0
2018-12-30T05:07:30.973Z,0
2018-12-30T05:08:31.681Z,0
2018-12-30T05:09:32.399Z,0
2018-12-30T05:10:33.107Z,0
2018-12-30T05:11:33.826Z,0
2018-12-30T05:12:34.640Z,0
2018-12-30T05:13:35.600Z,0
2018-12-30T05:14:36.316Z,0
2018-12-30T05:15:37.028Z,0
2018-12-30T05:16:37.752Z,0
2018-12-30T05:17:38.459Z,0
2018-12-30T05:18:39.162Z,0
2018-12-30T05:19:39.882Z,0
2018-12-30T05:20:40.606Z,0
2018-12-30T05:21:41.319Z,0
2018-12-30T05:22:42.035Z,0
2018-12-30T05:23:42.749Z,0
2018-12-30T05:24:43.459Z,0
2018-12-30T05:25:44.410Z,0
2018-12-30T05:26:45.125Z,0
2018-12-30T05:27:45.836Z,0
2018-12-30T05:28:46.544Z,0
2018-12-30T05:29:47.269Z,0
2018-12-30T05:30:47.980Z,0
2018-12-30T05:31:48.941Z,0
2018-12-30T05:32:49.651Z,0
2018-12-30T05:33:50.372Z,0
2018-12-30T05:34:51.083Z,0
2018-12-30T05:35:51.796Z,0
2018-12-30T05:36:52.514Z,0
2018-12-30T05:37:53.236Z,0
2018-12-30T05:38:53.946Z,0
2018-12-30T05:39:54.647Z,0
2018-12-30T05:40:55.377Z,0
2018-12-30T05:41:56.093Z,0
2018-12-30T05:42:56.804Z,0
2018-12-30T05:43:57.506Z,0
2018-12-30T05:44:58.227Z,0
2018-12-30T05:45:58.942Z,0
2018-12-30T05:46:59.644Z,0
2018-12-30T05:48:00.377Z,0
2018-12-30T05:49:01.089Z,0
2018-12-30T05:50:01.808Z,0
2018-12-30T05:51:02.518Z,0
2018-12-30T05:52:03.221Z,0
2018-12-30T05:53:03.929Z,0
2018-12-30T05:54:04.656Z,0
2018-12-30T05:55:05.371Z,0
2018-12-30T05:56:06.326Z,0
2018-12-30T05:57:07.034Z,0
2018-12-30T05:58:07.748Z,0
2018-12-30T05:59:08.467Z,0
2018-12-30T06:00:09.180Z,0
2018-12-30T06:01:09.896Z,0
2018-12-30T06:02:10.607Z,0
2018-12-30T06:03:11.318Z,0
2018-12-30T06:04:12.031Z,0
2018-12-30T06:05:12.750Z,0
2018-12-30T06:06:13.463Z,0
2018-12-30T06:07:14.428Z,0
2018-12-30T06:08:15.200Z,0
2018-12-30T06:09:16.181Z,0
2018-12-30T06:10:16.895Z,0
2018-12-30T06:11:17.602Z,0
2018-12-30T06:12:18.310Z,0
2018-12-30T06:13:19.022Z,0
2018-12-30T06:14:19.733Z,0
2018-12-30T06:15:20.457Z,0
2018-12-30T06:16:21.178Z,0
2018-12-30T06:17:21.891Z,0
2018-12-30T06:18:22.900Z,0
2018-12-30T06:19:23.607Z,0
2018-12-30T06:20:24.687Z,0
2018-12-30T06:21:25.387Z,0
2018-12-30T06:22:26.356Z,0
2018-12-30T06:23:27.075Z,0
2018-12-30T06:24:27.884Z,0
2018-12-30T06:25:28.596Z,0
2018-12-30T06:26:29.311Z,0
2018-12-30T06:27:30.304Z,0
2018-12-30T06:28:31.004Z,0
2018-12-30T06:29:31.715Z,0
2018-12-30T06:30:32.439Z,0
2018-12-30T06:31:33.146Z,0
2018-12-30T06:32:33.867Z,0
2018-12-30T06:33:34.585Z,0
2018-12-30T06:34:35.536Z,0
2018-12-30T06:35:36.307Z,0
2018-12-30T06:36:37.274Z,0
2018-12-30T06:37:37.982Z,0
2018-12-30T06:38:38.700Z,0
2018-12-30T06:39:39.428Z,0
2018-12-30T06:40:40.138Z,0
2018-12-30T06:41:40.866Z,0
2018-12-30T06:42:41.572Z,0
2018-12-30T06:43:42.284Z,0
2018-12-30T06:44:42.999Z,0
2018-12-30T06:45:44.020Z,0
2018-12-30T06:46:44.727Z,0
2018-12-30T06:47:46.004Z,0
2018-12-30T06:48:46.711Z,0
2018-12-30T06:49:47.438Z,0
2018-12-30T06:51:50.812Z,0
2018-12-30T06:52:57.620Z,0
2018-12-30T06:53:52.240Z,0
2018-12-30T06:54:52.958Z,0
2018-12-30T06:55:53.675Z,4
2018-12-30T06:56:54.735Z,0
2018-12-30T06:57:55.443Z,0
2018-12-30T06:58:56.161Z,4
2018-12-30T06:59:56.879Z,4
2018-12-30T07:00:57.589Z,4
2018-12-30T07:01:58.357Z,4
2018-12-30T07:02:59.073Z,4
2018-12-30T07:03:59.782Z,8
2018-12-30T07:05:00.495Z,8
2018-12-30T07:06:01.213Z,8
2018-12-30T07:07:02.173Z,8
2018-12-30T07:08:02.883Z,16
2018-12-30T07:09:03.596Z,20
2018-12-30T07:10:04.357Z,20
2018-12-30T07:11:05.071Z,20
2018-12-30T07:12:05.795Z,24
2018-12-30T07:13:06.593Z,24
2018-12-30T07:14:08.629Z,24
2018-12-30T07:15:08.024Z,24
2018-12-30T07:16:08.743Z,24
2018-12-30T07:17:09.456Z,32
2018-12-30T07:18:10.220Z,44
2018-12-30T07:19:10.934Z,40
2018-12-30T07:20:11.656Z,36
2018-12-30T07:21:12.365Z,40
2018-12-30T07:22:13.071Z,52
2018-12-30T07:23:13.779Z,84
2018-12-30T07:24:14.734Z,104
2018-12-30T07:25:15.450Z,132
2018-12-30T07:26:16.262Z,152
2018-12-30T07:27:18.422Z,180
2018-12-30T07:28:17.704Z,196
2018-12-30T07:29:18.422Z,204
2018-12-30T07:30:19.131Z,236
2018-12-30T07:31:19.864Z,240
2018-12-30T07:32:20.588Z,264
2018-12-30T07:33:23.072Z,296
2018-12-30T07:34:22.024Z,312
2018-12-30T07:35:23.030Z,320
2018-12-30T07:36:23.854Z,320
2018-12-30T07:37:24.575Z,360
2018-12-30T07:38:25.284Z,404
2018-12-30T07:39:26.003Z,424
2018-12-30T07:40:26.718Z,396
2018-12-30T07:41:27.453Z,372
2018-12-30T07:42:28.160Z,376
2018-12-30T07:43:28.887Z,408
2018-12-30T07:44:29.602Z,440
2018-12-30T07:45:30.316Z,468
2018-12-30T07:46:31.038Z,480
2018-12-30T07:47:31.754Z,496
2018-12-30T07:48:32.463Z,588
2018-12-30T07:49:33.184Z,684
2018-12-30T07:50:34.148Z,712
2018-12-30T07:51:35.287Z,552
2018-12-30T07:52:35.995Z,464
2018-12-30T07:53:36.806Z,536
2018-12-30T07:54:37.527Z,576
2018-12-30T07:55:38.245Z,448
2018-12-30T07:56:38.957Z,476
2018-12-30T07:57:39.673Z,468
2018-12-30T07:58:40.447Z,556
2018-12-30T07:59:41.167Z,676
2018-12-30T08:00:41.883Z,980
2018-12-30T08:01:42.592Z,972
2018-12-30T08:02:43.307Z,868
2018-12-30T08:03:44.018Z,792
2018-12-30T08:04:44.746Z,780
2018-12-30T08:05:45.725Z,860
2018-12-30T08:06:46.435Z,776
2018-12-30T08:07:47.160Z,1012
2018-12-30T08:08:47.918Z,1000
2018-12-30T08:09:48.637Z,796
2018-12-30T08:10:49.390Z,804
2018-12-30T08:11:50.062Z,724
2018-12-30T08:12:50.782Z,584
2018-12-30T08:13:51.504Z,764
2018-12-30T08:14:52.321Z,1204
2018-12-30T08:15:53.051Z,1488
2018-12-30T08:16:53.763Z,1648
2018-12-30T08:17:54.481Z,1948
2018-12-30T08:18:55.218Z,1804
2018-12-30T08:19:55.919Z,1764
2018-12-30T08:20:56.635Z,1628
2018-12-30T08:21:57.362Z,1856
2018-12-30T08:22:58.080Z,2284
2018-12-30T08:23:58.806Z,2556
2018-12-30T08:24:59.885Z,2884
2018-12-30T08:26:00.604Z,2860
2018-12-30T08:27:01.349Z,3208
2018-12-30T08:28:02.070Z,3196
2018-12-30T08:29:02.818Z,3228
2018-12-30T08:30:03.540Z,3120
2018-12-30T08:31:04.302Z,3332
2018-12-30T08:32:05.028Z,3360
2018-12-30T08:33:05.753Z,2868
2018-12-30T08:34:06.464Z,2904
2018-12-30T08:35:07.196Z,3092
2018-12-30T08:36:07.956Z,3024
2018-12-30T08:37:08.684Z,3240
2018-12-30T08:38:09.410Z,2904
2018-12-30T08:39:10.115Z,2800
2018-12-30T08:40:10.850Z,2764
2018-12-30T08:41:11.722Z,2904
2018-12-30T08:42:12.436Z,3180
2018-12-30T08:43:13.166Z,3408
2018-12-30T08:44:13.896Z,3520
2018-12-30T08:45:15.845Z,3408
2018-12-30T08:46:15.398Z,3200
2018-12-30T08:47:16.115Z,3172
2018-12-30T08:48:16.835Z,2856
2018-12-30T08:49:17.545Z,2388
2018-12-30T08:50:18.267Z,2060
2018-12-30T08:51:18.974Z,1976
2018-12-30T08:52:19.697Z,1940
2018-12-30T08:53:20.418Z,1956
2018-12-30T08:54:21.148Z,1988
2018-12-30T08:55:21.874Z,1872
2018-12-30T08:56:22.600Z,1872
2018-12-30T08:57:23.415Z,1992
2018-12-30T08:58:24.139Z,2148
2018-12-30T08:59:24.869Z,2864
2018-12-30T09:00:25.578Z,2900
2018-12-30T09:01:28.541Z,2600
2018-12-30T09:02:27.018Z,2124
2018-12-30T09:03:27.725Z,2008
2018-12-30T09:04:28.443Z,2428
2018-12-30T09:05:29.160Z,2328
2018-12-30T09:06:29.880Z,2136
2018-12-30T09:07:30.647Z,2068
2018-12-30T09:08:31.372Z,2448
2018-12-30T09:09:32.094Z,3128
2018-12-30T09:10:32.818Z,3988
2018-12-30T09:11:33.539Z,4156
2018-12-30T09:12:34.311Z,3944
2018-12-30T09:13:35.037Z,3764
2018-12-30T09:14:35.754Z,4528
2018-12-30T09:15:36.488Z,4924
2018-12-30T09:16:37.214Z,4988
2018-12-30T09:17:37.942Z,4808
2018-12-30T09:18:38.655Z,5096
2018-12-30T09:19:39.373Z,4868
2018-12-30T09:20:40.089Z,5044
2018-12-30T09:21:40.819Z,4696
2018-12-30T09:22:41.551Z,4648
2018-12-30T09:23:42.279Z,4788
2018-12-30T09:24:43.312Z,4724
2018-12-30T09:25:44.023Z,4852
2018-12-30T09:26:45.343Z,5576
2018-12-30T09:27:46.196Z,6444
2018-12-30T09:28:46.930Z,7124
2018-12-30T09:29:47.704Z,7104
2018-12-30T09:30:48.391Z,6932
2018-12-30T09:31:49.113Z,7140
2018-12-30T09:32:49.845Z,7592
2018-12-30T09:33:50.555Z,8460
2018-12-30T09:34:51.290Z,9196
2018-12-30T09:35:52.016Z,9484
2018-12-30T09:36:53.359Z,9320
2018-12-30T09:37:53.454Z,9528
2018-12-30T09:38:54.171Z,9464
2018-12-30T09:39:54.935Z,8864
2018-12-30T09:40:55.654Z,8864
2018-12-30T09:41:56.386Z,9128
2018-12-30T09:42:57.108Z,8968
2018-12-30T09:43:57.848Z,8012
2018-12-30T09:44:58.613Z,7756
2018-12-30T09:45:59.342Z,7896
2018-12-30T09:47:00.064Z,7968
2018-12-30T09:48:00.778Z,7732
2018-12-30T09:49:01.500Z,7380
2018-12-30T09:50:02.212Z,6972
2018-12-30T09:51:02.937Z,6416
2018-12-30T09:52:03.656Z,6060
2018-12-30T09:53:04.442Z,5552
2018-12-30T09:54:05.156Z,5072
2018-12-30T09:55:05.880Z,5228
2018-12-30T09:56:06.602Z,5052
2018-12-30T09:57:07.568Z,4308
2018-12-30T09:58:08.311Z,4004
2018-12-30T09:59:09.036Z,4160
2018-12-30T10:00:09.760Z,4432
2018-12-30T10:01:10.582Z,4900
2018-12-30T10:02:11.221Z,5116
2018-12-30T10:03:11.949Z,5296
2018-12-30T10:04:12.667Z,5740
2018-12-30T10:05:13.634Z,6344
2018-12-30T10:06:14.363Z,7004
2018-12-30T10:07:15.100Z,7508
2018-12-30T10:08:15.815Z,7800
2018-12-30T10:09:16.540Z,7932
2018-12-30T10:10:17.271Z,8440
2018-12-30T10:11:17.990Z,9448
2018-12-30T10:12:18.722Z,10620
2018-12-30T10:13:19.447Z,10260
2018-12-30T10:14:20.159Z,9444
2018-12-30T10:15:20.879Z,8108
2018-12-30T10:16:21.595Z,7772
2018-12-30T10:17:22.321Z,7496
2018-12-30T10:18:23.025Z,6824
2018-12-30T10:19:23.763Z,6552
2018-12-30T10:20:24.491Z,4924
2018-12-30T10:21:25.211Z,5252
2018-12-30T10:22:25.940Z,5192
2018-12-30T10:23:26.651Z,6000
2018-12-30T10:24:27.615Z,6196
2018-12-30T10:25:28.369Z,7056
2018-12-30T10:26:29.087Z,7724
2018-12-30T10:27:29.830Z,7356
2018-12-30T10:28:30.553Z,8612
2018-12-30T10:29:31.279Z,11296
2018-12-30T10:30:32.008Z,11708
2018-12-30T10:31:32.722Z,13428
2018-12-30T10:32:33.450Z,13348
2018-12-30T10:33:34.172Z,15932
2018-12-30T10:34:34.897Z,18592
2018-12-30T10:35:35.617Z,16724
2018-12-30T10:36:36.346Z,14976
2018-12-30T10:37:37.057Z,11832
2018-12-30T10:38:37.795Z,13220
2018-12-30T10:39:38.507Z,12664
2018-12-30T10:40:39.234Z,10660
2018-12-30T10:41:39.948Z,10228
2018-12-30T10:42:40.672Z,8812
2018-12-30T10:43:41.390Z,7000
2018-12-30T10:44:42.105Z,6092
2018-12-30T10:45:42.854Z,5348
2018-12-30T10:46:43.580Z,4472
2018-12-30T10:47:44.403Z,3976
2018-12-30T10:48:45.128Z,4680
2018-12-30T10:49:45.852Z,6528
2018-12-30T10:50:46.575Z,10104
2018-12-30T10:51:47.294Z,14768
2018-12-30T10:52:48.019Z,17376
2018-12-30T10:53:48.736Z,17536
2018-12-30T10:54:49.452Z,14608
2018-12-30T10:55:50.222Z,10500
2018-12-30T10:56:50.947Z,9612
2018-12-30T10:57:51.670Z,12880
2018-12-30T10:58:52.390Z,12368
2018-12-30T10:59:53.114Z,9968
2018-12-30T11:00:53.838Z,6096
2018-12-30T11:01:54.572Z,6072
2018-12-30T11:02:55.284Z,7452
2018-12-30T11:03:56.008Z,11232
2018-12-30T11:04:56.728Z,14784
2018-12-30T11:05:57.569Z,15620
2018-12-30T11:06:58.297Z,15224
2018-12-30T11:07:59.006Z,11384
2018-12-30T11:08:59.739Z,9936
2018-12-30T11:10:00.463Z,12636
2018-12-30T11:11:01.287Z,13048
2018-12-30T11:12:02.017Z,13868
2018-12-30T11:13:02.733Z,13296
2018-12-30T11:14:03.456Z,11572
2018-12-30T11:15:04.180Z,14672
2018-12-30T11:16:04.903Z,16332
2018-12-30T11:17:05.625Z,14696
2018-12-30T11:18:06.347Z,12120
2018-12-30T11:19:07.073Z,9492
2018-12-30T11:20:07.810Z,8748
2018-12-30T11:21:08.532Z,8720
2018-12-30T11:22:09.248Z,8436
2018-12-30T11:23:09.961Z,10304
2018-12-30T11:24:10.686Z,13360
2018-12-30T11:25:11.407Z,11392
2018-12-30T11:26:12.133Z,9648
2018-12-30T11:27:12.853Z,9364
2018-12-30T11:28:13.569Z,9388
2018-12-30T11:29:14.307Z,9508
2018-12-30T11:30:15.027Z,9420
2018-12-30T11:31:15.750Z,9884
2018-12-30T11:32:16.466Z,10684
2018-12-30T11:33:17.197Z,10360
2018-12-30T11:34:17.913Z,10636
2018-12-30T11:35:18.634Z,11460
2018-12-30T11:36:19.359Z,13608
2018-12-30T11:37:20.078Z,14432
2018-12-30T11:38:20.898Z,15784
2018-12-30T11:39:21.877Z,14816
2018-12-30T11:40:22.592Z,13524
2018-12-30T11:41:23.332Z,11692
2018-12-30T11:42:24.059Z,10240
2018-12-30T11:43:24.814Z,9940
2018-12-30T11:44:25.538Z,8180
2018-12-30T11:45:26.511Z,9096
2018-12-30T11:46:27.233Z,10648
2018-12-30T11:47:27.953Z,10080
2018-12-30T11:48:28.680Z,8800
2018-12-30T11:49:29.412Z,8424
2018-12-30T11:50:30.133Z,7428
2018-12-30T11:51:30.862Z,7592
2018-12-30T11:52:31.573Z,6804
2018-12-30T11:53:32.295Z,8168
2018-12-30T11:54:33.014Z,11596
2018-12-30T11:55:33.757Z,13200
2018-12-30T11:56:34.484Z,13696
2018-12-30T11:57:35.210Z,14536
2018-12-30T11:58:35.938Z,12064
2018-12-30T11:59:36.660Z,10452
2018-12-30T12:00:37.431Z,9644
2018-12-30T12:01:38.147Z,9096
2018-12-30T12:02:39.114Z,8376
2018-12-30T12:03:39.836Z,7596
2018-12-30T12:04:40.578Z,6720
2018-12-30T12:05:41.297Z,6684
2018-12-30T12:06:42.026Z,6780
2018-12-30T12:07:42.747Z,6396
2018-12-30T12:08:43.469Z,7492
2018-12-30T12:09:44.186Z,8048
2018-12-30T12:10:44.903Z,7872
2018-12-30T12:11:45.632Z,7704
2018-12-30T12:12:48.998Z,7856
2018-12-30T12:13:47.069Z,7876
2018-12-30T12:14:47.802Z,7368
2018-12-30T12:15:48.526Z,6532
2018-12-30T12:16:49.248Z,6972
2018-12-30T12:17:50.030Z,5908
2018-12-30T12:18:50.750Z,6100
2018-12-30T12:19:51.476Z,7368
2018-12-30T12:20:52.198Z,9948
2018-12-30T12:21:52.918Z,8352
2018-12-30T12:22:53.655Z,11060
2018-12-30T12:23:54.381Z,12744
2018-12-30T12:24:55.104Z,9760
2018-12-30T12:25:56.082Z,10796
2018-12-30T12:26:56.809Z,9492
2018-12-30T12:27:57.529Z,9556
2018-12-30T12:28:58.349Z,7632
2018-12-30T12:29:59.078Z,5744
2018-12-30T12:30:59.795Z,6404
2018-12-30T12:32:00.519Z,5384
2018-12-30T12:33:01.233Z,4412
2018-12-30T12:34:01.951Z,4368
2018-12-30T12:35:02.824Z,4584
2018-12-30T12:36:03.547Z,4468
2018-12-30T12:37:04.257Z,4492
2018-12-30T12:38:04.977Z,5152
2018-12-30T12:39:05.696Z,5852
2018-12-30T12:40:06.466Z,5580
2018-12-30T12:41:07.197Z,5676
2018-12-30T12:42:07.931Z,6816
2018-12-30T12:43:08.650Z,7288
2018-12-30T12:44:09.383Z,6348
2018-12-30T12:45:10.393Z,6808
2018-12-30T12:46:11.124Z,6060
2018-12-30T12:47:11.933Z,6504
2018-12-30T12:48:13.680Z,7576
2018-12-30T12:49:14.978Z,7760
2018-12-30T12:50:15.794Z,8512
2018-12-30T12:51:16.515Z,7800
2018-12-30T12:52:18.249Z,6472
2018-12-30T12:53:19.322Z,5744
2018-12-30T12:54:20.048Z,5624
2018-12-30T12:55:20.762Z,5940
2018-12-30T12:56:21.722Z,5888
2018-12-30T12:57:22.803Z,5784
2018-12-30T12:58:23.513Z,5772
2018-12-30T12:59:25.049Z,6172
2018-12-30T13:00:25.766Z,6088
2018-12-30T13:01:26.494Z,5808
2018-12-30T13:02:27.222Z,6084
2018-12-30T13:03:27.946Z,6200
2018-12-30T13:04:28.764Z,6392
2018-12-30T13:05:29.481Z,6640
2018-12-30T13:06:30.354Z,7288
2018-12-30T13:07:31.094Z,5820
2018-12-30T13:08:31.824Z,5748
2018-12-30T13:09:32.585Z,5760
2018-12-30T13:10:33.311Z,5892
2018-12-30T13:11:34.016Z,5440
2018-12-30T13:12:34.734Z,4264
2018-12-30T13:13:36.482Z,3704
2018-12-30T13:14:38.890Z,4100
2018-12-30T13:15:39.674Z,4072
2018-12-30T13:16:40.733Z,3972
2018-12-30T13:17:41.503Z,4300
2018-12-30T13:18:42.220Z,5680
2018-12-30T13:19:43.187Z,5384
2018-12-30T13:20:44.516Z,4964
2018-12-30T13:21:45.247Z,5560
2018-12-30T13:22:46.270Z,4996
2018-12-30T13:23:46.981Z,4232
2018-12-30T13:24:47.697Z,4312
2018-12-30T13:25:48.598Z,4336
2018-12-30T13:26:49.350Z,4068
2018-12-30T13:27:50.440Z,4712
2018-12-30T13:28:51.237Z,4980
2018-12-30T13:29:52.922Z,4504
2018-12-30T13:30:54.081Z,3440
2018-12-30T13:31:54.792Z,2684
2018-12-30T13:32:55.512Z,2792
2018-12-30T13:33:56.229Z,3032
2018-12-30T13:34:57.937Z,3144
2018-12-30T13:35:59.135Z,3340
2018-12-30T13:36:59.856Z,2868
2018-12-30T13:38:00.586Z,2736
2018-12-30T13:39:01.324Z,2648
2018-12-30T13:40:02.047Z,2600
2018-12-30T13:41:02.830Z,3224
2018-12-30T13:42:03.549Z,4228
2018-12-30T13:43:04.268Z,3628
2018-12-30T13:44:04.988Z,2464
2018-12-30T13:45:05.723Z,2280
2018-12-30T13:46:06.452Z,2920
2018-12-30T13:47:07.171Z,2812
2018-12-30T13:48:07.896Z,2084
2018-12-30T13:49:08.612Z,1812
2018-12-30T13:50:09.343Z,1708
2018-12-30T13:51:10.944Z,1896
2018-12-30T13:52:11.860Z,2592
2018-12-30T13:53:13.098Z,3212
2018-12-30T13:54:14.057Z,3376
2018-12-30T13:55:14.795Z,3184
2018-12-30T13:56:15.503Z,2224
2018-12-30T13:57:16.219Z,1532
2018-12-30T13:58:16.942Z,1416
2018-12-30T13:59:17.663Z,1772
2018-12-30T14:00:18.388Z,1776
2018-12-30T14:01:19.932Z,1396
2018-12-30T14:02:20.849Z,1252
2018-12-30T14:03:21.572Z,1400
2018-12-30T14:04:22.294Z,1588
2018-12-30T14:05:23.261Z,1396
2018-12-30T14:06:24.029Z,1136
2018-12-30T14:07:24.774Z,1196
2018-12-30T14:08:25.541Z,1916
2018-12-30T14:09:26.260Z,2420
2018-12-30T14:10:26.985Z,2004
2018-12-30T14:11:27.716Z,1404
2018-12-30T14:12:28.430Z,1192
2018-12-30T14:13:29.154Z,980